Latest Weather Observations for Camden

IDN60901

Issued at 6:53 pm EST Saturday 18 April 2015 (issued every 10 minutes, with the page automatically refreshed every 10 minutes)

About weather observations | Map of Sydney area stations | Latest observations for Sydney area | Other Formats
Station Details ID: 068192 Name: CAMDEN AIRPORT AWS Lat: -34.04 Lon: 150.69 Height: 73.9 m
Data from the previous 72 hours. | See also: Recent months at Camden
Date/Time
EST
Tmp

°C
App
Tmp
°C
Dew
Point
°C
Rel
Hum
%
Delta-T

°C
Wind Press
QNH
hPa
Press
MSL
hPa
Rain
since
9 am
mm
Dir
 
Spd
km/h
Gust
km/h
Spd
kts
Gust
kts
18/06:30pm 22.0 21.9 16.1 69 3.6 N 11 15 6 8 1013.3 1013.2 0.0
18/06:00pm 22.5 22.0 15.8 66 4.0 NNE 13 17 7 9 1013.0 1012.9 0.0
18/05:30pm 22.8 21.9 15.9 65 4.2 N 15 20 8 11 1012.6 1012.5 0.0
18/05:00pm 23.0 22.6 16.3 66 4.1 N 13 17 7 9 1012.7 1012.6 0.0
18/04:30pm 23.8 22.1 15.8 61 4.9 N 19 24 10 13 1012.7 1012.6 0.0
18/04:00pm 24.3 23.1 16.0 60 5.1 N 17 24 9 13 1013.0 1012.9 0.0
18/03:30pm 24.4 23.8 16.6 61 4.8 N 15 20 8 11 1013.1 1013.0 0.0
18/03:00pm 24.8 23.4 16.5 60 5.1 NNE 19 24 10 13 1013.3 1013.2 0.0
18/02:30pm 25.5 24.4 16.4 57 5.6 NNE 17 20 9 11 1013.5 1013.4 0.0
18/02:00pm 25.9 27.3 17.3 59 5.4 N 6 9 3 5 1013.7 1013.6 0.0
18/01:30pm 25.9 27.0 17.0 58 5.5 NNW 7 9 4 5 1013.9 1013.8 0.0
18/01:00pm 25.8 26.9 17.2 59 5.4 N 7 11 4 6 1014.1 1014.0 0.0
18/12:30pm 26.0 29.0 19.2 66 4.4 SW 2 9 1 5 1014.6 1014.5 0.0
18/12:00pm 24.8 28.2 19.4 72 3.5 CALM 0 7 0 4 1015.5 1015.3 0.0
18/11:30am 23.5 26.5 18.4 73 3.2 CALM 0 6 0 3 1016.2 1016.0 0.0
18/11:00am 22.4 24.3 18.6 79 2.4 SW 6 7 3 4 1016.6 1016.4 0.0
18/10:35am 21.7 23.7 18.7 83 1.9 WSW 6 9 3 5 1016.9 1016.7 0.0
18/10:30am 21.8 23.8 18.8 83 1.9 WSW 6 9 3 5 1017.0 1016.8 0.0
18/10:26am 21.5 23.2 18.5 83 1.9 WSW 7 9 4 5 1017.0 1016.8 0.0
18/10:00am 20.8 23.2 18.7 88 1.3 W 4 9 2 5 1017.3 1017.1 0.0
18/09:00am 19.9 23.5 19.7 99 0.1 CALM 0 0 0 0 1017.6 1017.4 14.2
18/08:30am 19.1 22.4 19.1 100 0.0 CALM 0 0 0 0 1017.9 1017.7 14.2
18/08:00am 18.8 22.0 18.8 100 0.0 CALM 0 0 0 0 1018.0 1017.8 14.2
18/07:31am 18.5 21.5 18.5 100 0.0 CALM 0 0 0 0 1017.8 1017.6 14.2
18/07:30am 18.5 21.5 18.5 100 0.0 CALM 0 0 0 0 1017.8 1017.6 14.2
18/07:22am 18.4 21.4 18.4 100 0.0 CALM 0 0 0 0 1017.8 1017.6 14.2
18/07:15am 18.3 21.2 18.3 100 0.0 CALM 0 0 0 0 1017.7 1017.5 14.2
18/07:00am 18.3 21.2 18.3 100 0.0 CALM 0 0 0 0 1017.6 1017.4 14.2
18/06:30am 18.4 21.4 18.4 100 0.0 CALM 0 0 0 0 1017.4 1017.2 14.2
18/05:30am 18.4 20.2 18.2 99 0.1 NNW 6 7 3 4 1017.3 1017.1 14.2
18/05:14am 18.4 20.0 18.2 99 0.1 NNW 7 9 4 5 1017.3 1017.1 14.2
18/05:00am 18.2 19.9 18.0 99 0.1 N 6 6 3 3 1017.3 1017.1 14.2
18/04:30am 18.2 21.0 18.0 99 0.1 CALM 0 6 0 3 1017.2 1017.0 14.2
18/04:13am 18.0 20.7 17.8 99 0.1 CALM 0 0 0 0 1017.3 1017.1 14.2
18/04:00am 17.8 20.4 17.6 99 0.1 CALM 0 0 0 0 1017.5 1017.3 14.2
18/03:30am 17.6 20.2 17.4 99 0.1 CALM 0 0 0 0 1017.5 1017.3 14.2
18/03:26am 17.6 20.2 17.4 99 0.1 CALM 0 0 0 0 1017.6 1017.4 14.2
18/03:00am 17.8 20.4 17.6 99 0.1 CALM 0 0 0 0 1017.7 1017.5 14.2
18/02:30am 17.9 20.6 17.7 99 0.1 CALM 0 0 0 0 1018.2 1018.0 14.2
18/02:04am 18.1 20.9 17.9 99 0.1 CALM 0 0 0 0 1018.6 1018.4 14.2
18/02:00am 18.1 20.9 17.9 99 0.1 CALM 0 0 0 0 1018.6 1018.4 14.2
18/01:31am 18.2 21.0 18.0 99 0.1 CALM 0 0 0 0 1019.3 1019.1 14.2
18/01:30am 18.2 21.0 18.0 99 0.1 CALM 0 0 0 0 1019.3 1019.1 14.2
18/01:08am 18.4 21.3 18.2 99 0.1 CALM 0 0 0 0 1019.4 1019.2 14.2
18/01:06am 18.4 21.3 18.2 99 0.1 CALM 0 0 0 0 1019.4 1019.2 14.2
18/01:00am 18.4 21.3 18.2 99 0.1 CALM 0 0 0 0 1019.5 1019.3 14.2
18/12:55am 18.6 21.6 18.4 99 0.1 CALM 0 0 0 0 1019.5 1019.3 14.2
18/12:30am 18.8 21.5 18.6 99 0.1 SE 2 6 1 3 1019.9 1019.7 14.2
18/12:19am 18.7 20.6 18.5 99 0.1 SSE 6 6 3 3 1019.9 1019.7 14.2
 
Date/Time
EST
Tmp

°C
App
Tmp
°C
Dew
Point
°C
Rel
Hum
%
Delta-T

°C
Wind Press
QNH
hPa
Press
MSL
hPa
Rain
since
9 am
mm
Dir
 
Spd
km/h
Gust
km/h
Spd
kts
Gust
kts
17/11:39pm 18.7 21.0 18.5 99 0.1 SSE 4 9 2 5 1020.1 1019.9 14.2
17/11:30pm 18.8 21.9 18.6 99 0.1 CALM 0 0 0 0 1020.4 1020.2 14.2
17/11:27pm 18.9 22.0 18.7 99 0.1 CALM 0 0 0 0 1020.6 1020.5 14.2
17/11:16pm 18.9 22.0 18.7 99 0.1 CALM 0 0 0 0 1020.7 1020.6 14.2
17/11:00pm 19.0 21.8 18.8 99 0.1 SW 2 7 1 4 1020.7 1020.6 14.2
17/10:30pm 18.9 22.0 18.7 99 0.1 CALM 0 0 0 0 1021.0 1020.9 14.2
17/10:15pm 19.0 22.1 18.7 98 0.2 CALM 0 0 0 0 1021.2 1021.1 14.2
17/10:00pm 19.0 22.1 18.7 98 0.2 CALM 0 0 0 0 1021.3 1021.2 14.2
17/09:50pm 19.0 22.1 18.7 98 0.2 CALM 0 0 0 0 1021.3 1021.2 14.2
17/09:30pm 18.9 21.9 18.4 97 0.3 CALM 0 6 0 3 1021.3 1021.2 14.2
17/09:00pm 19.1 21.0 18.6 97 0.3 E 6 7 3 4 1021.4 1021.3 14.2
17/08:30pm 19.2 21.2 18.7 97 0.3 ENE 6 7 3 4 1021.7 1021.6 14.2
17/08:00pm 19.2 22.3 18.7 97 0.3 CALM 0 0 0 0 1021.6 1021.5 14.2
17/07:42pm 19.2 22.3 18.7 97 0.3 CALM 0 0 0 0 1021.6 1021.5 14.0
17/07:30pm 19.2 21.9 18.7 97 0.3 E 2 6 1 3 1021.5 1021.4 14.0
17/07:00pm 19.4 21.3 18.9 97 0.3 ENE 7 11 4 6 1021.4 1021.3 14.0
17/06:53pm 19.4 20.9 18.9 97 0.3 ENE 9 11 5 6 1021.3 1021.2 14.0
17/06:30pm 19.6 21.8 19.1 97 0.3 ENE 6 9 3 5 1021.3 1021.2 14.0
17/06:00pm 19.7 21.9 19.2 97 0.3 N 6 9 3 5 1021.2 1021.1 14.0
17/05:38pm 19.7 21.6 19.0 96 0.4 SW 7 13 4 7 1021.1 1021.0 13.6
17/05:30pm 19.8 21.9 19.0 95 0.5 WSW 6 9 3 5 1021.2 1021.1 13.4
17/05:00pm 19.8 22.6 18.8 94 0.6 SSE 2 7 1 4 1021.1 1021.0 13.0
17/04:30pm 19.9 21.8 18.9 94 0.6 SSW 7 11 4 6 1021.1 1021.0 12.8
17/04:00pm 20.1 23.2 18.6 91 0.9 CALM 0 0 0 0 1021.1 1021.0 12.8
17/03:48pm 20.2 23.2 18.5 90 1.1 CALM 0 0 0 0 1021.2 1021.1 12.8
17/03:32pm 20.3 23.4 18.6 90 1.1 CALM 0 0 0 0 1021.3 1021.2 12.8
17/03:30pm 20.3 23.4 18.6 90 1.1 CALM 0 0 0 0 1021.3 1021.2 12.8
17/03:00pm 20.2 23.2 18.5 90 1.1 CALM 0 0 0 0 1021.5 1021.4 12.8
17/02:34pm 20.3 23.4 18.6 90 1.1 CALM 0 0 0 0 1021.5 1021.4 12.8
17/02:30pm 20.3 23.5 18.8 91 0.9 CALM 0 4 0 2 1021.6 1021.5 12.8
17/02:00pm 19.9 21.9 19.2 96 0.4 E 7 9 4 5 1021.7 1021.6 12.8
17/01:30pm 19.5 22.5 19.3 99 0.1 ESE 2 7 1 4 1022.0 1021.9 12.8
17/01:08pm 19.3 21.8 19.1 99 0.1 E 4 7 2 4 1022.3 1022.2 12.8
17/01:00pm 19.2 21.7 19.0 99 0.1 ENE 4 7 2 4 1022.5 1022.4 12.8
17/12:56pm 19.2 22.1 19.0 99 0.1 ENE 2 7 1 4 1022.6 1022.5 12.6
17/12:55pm 19.2 22.1 19.0 99 0.1 NE 2 7 1 4 1022.6 1022.5 12.6
17/12:44pm 18.8 21.9 18.6 99 0.1 CALM 0 0 0 0 1023.0 1022.9 12.4
17/12:35pm 18.9 22.0 18.7 99 0.1 CALM 0 0 0 0 1023.2 1023.1 12.2
17/12:30pm 18.9 22.0 18.7 99 0.1 CALM 0 0 0 0 1023.3 1023.2 12.2
17/12:00pm 18.6 20.4 18.4 99 0.1 WSW 6 11 3 6 1024.1 1024.0 9.8
17/11:39am 18.6 20.4 18.4 99 0.1 SSW 6 11 3 6 1024.2 1024.1 6.6
17/11:30am 18.7 21.7 18.5 99 0.1 CALM 0 0 0 0 1024.3 1024.2 6.2
17/11:00am 18.7 21.3 18.4 98 0.2 S 2 7 1 4 1024.7 1024.6 4.2
17/10:59am 18.7 21.3 18.4 98 0.2 S 2 6 1 3 1024.7 1024.6 4.0
17/10:34am 18.7 21.3 18.4 98 0.2 S 2 7 1 4 1024.9 1024.8 1.6
17/10:30am 18.6 20.4 18.3 98 0.2 SSW 6 9 3 5 1024.8 1024.7 1.4
17/10:22am 18.6 20.1 18.1 97 0.3 SW 7 9 4 5 1024.9 1024.8 1.4
17/10:00am 18.8 20.5 18.5 98 0.2 ENE 7 11 4 6 1024.9 1024.8 1.2
17/09:49am 18.7 20.9 18.4 98 0.2 S 4 7 2 4 1025.0 1024.9 1.0
17/09:30am 18.8 20.1 18.5 98 0.2 S 9 11 5 6 1024.9 1024.8 0.6
17/09:04am 18.9 21.9 18.4 97 0.3 CALM 0 0 0 0 1025.1 1025.0 0.0
17/09:00am 18.9 21.9 18.4 97 0.3 CALM 0 0 0 0 1025.1 1025.0 3.4
17/08:53am 18.9 21.9 18.4 97 0.3 CALM 0 0 0 0 1025.0 1024.9 3.4
17/08:30am 18.9 22.0 18.6 98 0.2 CALM 0 0 0 0 1024.9 1024.8 3.2
17/08:00am 18.8 21.7 18.3 97 0.3 CALM 0 0 0 0 1024.8 1024.7 2.0
17/07:56am 18.8 21.7 18.3 97 0.3 CALM 0 0 0 0 1024.7 1024.6 2.0
17/07:43am 18.7 21.6 18.2 97 0.3 CALM 0 0 0 0 1024.6 1024.5 2.0
17/07:30am 18.7 21.6 18.2 97 0.3 CALM 0 0 0 0 1024.5 1024.4 1.8
17/07:29am 18.6 21.5 18.1 97 0.3 CALM 0 0 0 0 1024.5 1024.4 1.8
17/07:00am 18.7 21.6 18.2 97 0.3 CALM 0 0 0 0 1024.4 1024.3 1.8
17/06:30am 18.6 21.4 17.9 96 0.4 CALM 0 0 0 0 1023.9 1023.8 1.6
17/06:09am 18.7 21.5 17.9 95 0.5 CALM 0 0 0 0 1023.9 1023.8 1.6
17/06:00am 18.7 21.5 17.9 95 0.5 CALM 0 0 0 0 1023.9 1023.8 1.6
17/05:46am 18.7 21.5 17.9 95 0.5 CALM 0 0 0 0 1023.7 1023.6 1.4
17/05:30am 18.7 21.5 17.9 95 0.5 CALM 0 0 0 0 1023.6 1023.5 1.2
17/05:11am 18.8 21.5 17.8 94 0.6 CALM 0 0 0 0 1023.4 1023.3 0.4
17/05:00am 18.9 21.6 17.7 93 0.7 CALM 0 0 0 0 1023.4 1023.3 0.2
17/04:30am 19.1 21.8 17.8 92 0.8 CALM 0 0 0 0 1023.5 1023.4 0.2
17/04:00am 18.9 21.5 17.4 91 0.9 CALM 0 0 0 0 1023.2 1023.1 0.0
17/03:35am 19.0 21.6 17.5 91 0.9 CALM 0 0 0 0 1023.2 1023.1 0.0
17/03:30am 19.0 21.5 17.3 90 1.0 CALM 0 0 0 0 1023.2 1023.1 0.0
17/03:00am 19.1 21.5 17.1 88 1.2 CALM 0 0 0 0 1023.3 1023.2 0.0
17/02:30am 19.5 21.9 16.9 85 1.6 CALM 0 0 0 0 1023.7 1023.6 0.0
17/02:00am 19.5 21.9 17.1 86 1.5 CALM 0 0 0 0 1023.9 1023.8 0.0
17/01:30am 19.7 22.1 16.9 84 1.7 CALM 0 0 0 0 1023.8 1023.7 0.0
17/01:00am 19.7 21.9 16.5 82 1.9 CALM 0 0 0 0 1023.8 1023.7 0.0
17/12:56am 19.8 22.0 16.6 82 1.9 CALM 0 0 0 0 1023.8 1023.7 0.0
17/12:30am 19.8 22.0 16.6 82 1.9 CALM 0 0 0 0 1024.0 1023.9 0.0
17/12:08am 19.8 22.0 16.6 82 1.9 CALM 0 0 0 0 1024.0 1023.9 0.0
17/12:00am 19.8 22.0 16.4 81 2.0 CALM 0 0 0 0 1024.1 1024.0 0.0
 
Date/Time
EST
Tmp

°C
App
Tmp
°C
Dew
Point
°C
Rel
Hum
%
Delta-T

°C
Wind Press
QNH
hPa
Press
MSL
hPa
Rain
since
9 am
mm
Dir
 
Spd
km/h
Gust
km/h
Spd
kts
Gust
kts
16/11:30pm 20.1 21.5 16.5 80 2.2 S 4 6 2 3 1024.1 1024.0 0.0
16/11:00pm 20.1 21.2 16.5 80 2.2 S 6 9 3 5 1024.1 1024.0 0.0
16/10:30pm 20.3 21.4 16.7 80 2.2 S 6 7 3 4 1024.2 1024.1 0.0
16/10:00pm 20.4 21.3 16.6 79 2.3 SSE 7 11 4 6 1024.3 1024.2 0.0
16/09:34pm 20.5 21.1 16.9 80 2.2 SSE 9 11 5 6 1024.1 1024.0 0.0
16/09:30pm 20.5 21.5 16.9 80 2.2 SSE 7 11 4 6 1024.0 1023.9 0.0
16/09:00pm 20.5 21.7 16.9 80 2.2 S 6 9 3 5 1023.8 1023.7 0.0
16/08:30pm 20.6 21.7 17.0 80 2.2 S 7 11 4 6 1023.7 1023.6 0.0
16/08:00pm 20.6 21.4 17.2 81 2.1 S 9 13 5 7 1023.3 1023.2 0.0
16/07:30pm 20.6 20.9 17.0 80 2.2 S 11 15 6 8 1022.9 1022.8 0.0
16/07:00pm 20.7 21.1 17.3 81 2.1 S 11 13 6 7 1022.6 1022.5 0.0
16/06:55pm 20.6 21.4 17.2 81 2.1 SSE 9 13 5 7 1022.5 1022.4 0.0
16/06:30pm 20.9 20.5 17.1 79 2.3 S 15 20 8 11 1022.0 1021.9 0.0
16/06:00pm 21.2 20.4 17.0 77 2.6 S 17 22 9 12 1021.3 1021.2 0.0
16/05:30pm 21.8 21.0 17.0 74 2.9 SSE 17 26 9 14 1020.7 1020.6 0.0
16/05:00pm 22.8 21.9 16.8 69 3.7 SSE 17 26 9 14 1020.2 1020.0 0.0
16/04:30pm 25.3 23.5 15.6 55 5.9 SSE 19 28 10 15 1019.5 1019.3 0.0
16/04:00pm 29.2 29.3 13.8 39 9.2 WNW 6 7 3 4 1019.1 1018.9 0.0
16/03:30pm 29.3 29.3 15.1 42 8.7 WNW 9 15 5 8 1019.3 1019.1 0.0
16/03:00pm 30.6 30.0 13.4 35 10.3 WNW 9 15 5 8 1019.3 1019.1 0.0
16/02:30pm 30.3 28.7 14.0 37 9.9 W 15 20 8 11 1019.4 1019.2 0.0
16/02:00pm 30.9 29.5 14.5 37 10.0 WNW 15 20 8 11 1019.5 1019.3 0.0
16/01:30pm 30.5 27.9 13.3 35 10.3 NW 19 26 10 14 1019.7 1019.5 0.0
16/01:00pm 30.4 28.2 14.5 38 9.7 NW 19 26 10 14 1020.1 1019.9 0.0
16/12:30pm 29.9 27.7 14.8 39 9.2 W 20 26 11 14 1020.3 1020.1 0.0
16/12:00pm 28.1 26.0 13.6 41 8.6 WNW 17 26 9 14 1021.0 1020.9 0.0
16/11:30am 27.9 27.4 14.9 45 7.9 W 11 17 6 9 1021.2 1021.1 0.0
16/11:00am 27.7 27.0 15.4 47 7.5 W 13 20 7 11 1021.6 1021.5 0.0
16/10:30am 25.2 27.6 17.1 60 5.0 CALM 0 0 0 0 1021.9 1021.8 0.0
16/10:00am 23.1 24.6 15.7 63 4.5 NNE 2 7 1 4 1022.2 1022.1 0.0
16/09:30am 20.7 22.6 16.7 78 2.4 ESE 2 6 1 3 1022.4 1022.3 0.0
16/09:00am 18.0 20.0 16.0 88 1.2 CALM 0 0 0 0 1022.6 1022.5 7.4
16/08:30am 17.3 19.2 15.8 91 0.9 CALM 0 0 0 0 1022.6 1022.5 7.4
16/08:00am 15.4 15.8 14.8 96 0.3 ESE 6 7 3 4 1022.6 1022.5 7.4
16/07:30am 14.4 14.4 14.2 99 0.1 S 7 9 4 5 1022.6 1022.5 7.4
16/07:18am 14.0 15.2 13.8 99 0.1 CALM 0 0 0 0 1022.4 1022.3 7.4
16/07:04am 12.9 13.7 12.7 99 0.1 CALM 0 0 0 0 1022.3 1022.2 7.4
16/07:00am 12.8 13.6 12.6 99 0.1 CALM 0 0 0 0 1022.3 1022.2 7.4
16/06:30am 12.2 12.8 12.0 99 0.1 CALM 0 0 0 0 1022.0 1021.9 7.4
16/06:23am 12.3 13.0 12.1 99 0.1 CALM 0 0 0 0 1022.0 1021.9 7.4
16/06:22am 12.4 13.1 12.2 99 0.1 CALM 0 0 0 0 1021.9 1021.8 7.4
16/06:21am 12.4 13.1 12.2 99 0.1 CALM 0 0 0 0 1021.9 1021.8 7.4
16/06:08am 12.5 12.8 12.3 99 0.1 SSE 2 7 1 4 1021.8 1021.7 7.4
16/06:03am 12.4 12.7 12.2 99 0.1 SSE 2 7 1 4 1021.8 1021.7 7.4
16/06:00am 12.6 13.4 12.4 99 0.1 CALM 0 7 0 4 1021.8 1021.7 7.2
16/05:30am 12.9 13.4 12.7 99 0.1 S 2 7 1 4 1021.7 1021.6 7.2
16/05:18am 12.7 12.7 12.5 99 0.1 S 4 7 2 4 1021.7 1021.6 7.2
16/05:00am 12.6 13.0 12.4 99 0.1 SE 2 7 1 4 1021.5 1021.4 7.2
16/04:59am 12.6 13.0 12.4 99 0.1 E 2 7 1 4 1021.5 1021.4 7.2
16/04:50am 12.8 13.6 12.6 99 0.1 CALM 0 2 0 1 1021.3 1021.2 7.2
16/04:30am 13.1 14.0 12.9 99 0.1 CALM 0 7 0 4 1021.4 1021.3 7.2
16/04:00am 13.2 14.1 13.0 99 0.1 CALM 0 0 0 0 1021.4 1021.3 7.2
16/03:30am 13.5 13.4 13.3 99 0.1 S 6 7 3 4 1021.4 1021.3 7.2
16/03:00am 13.8 14.9 13.6 99 0.1 CALM 0 0 0 0 1021.5 1021.4 7.2
16/02:30am 13.9 15.1 13.7 99 0.1 CALM 0 0 0 0 1021.7 1021.6 7.2
16/02:08am 14.0 14.4 13.8 99 0.1 N 4 9 2 5 1022.0 1021.9 7.2
16/02:05am 14.2 14.7 13.9 98 0.2 NNE 4 7 2 4 1022.0 1021.9 7.2
16/02:04am 14.0 14.4 13.7 98 0.2 NNE 4 7 2 4 1022.0 1021.9 7.2
16/02:02am 14.1 14.2 13.9 99 0.1 NNE 6 9 3 5 1022.0 1021.9 7.2
16/02:00am 14.3 14.8 14.0 98 0.2 NNE 4 9 2 5 1022.0 1021.9 7.2
16/01:34am 14.7 16.1 14.4 98 0.2 CALM 0 0 0 0 1022.1 1022.0 7.2
16/01:30am 15.0 16.5 14.7 98 0.2 CALM 0 0 0 0 1022.2 1022.1 7.2
16/01:23am 15.0 16.5 14.7 98 0.2 CALM 0 0 0 0 1022.4 1022.3 7.2
16/01:00am 14.9 16.3 14.4 97 0.3 CALM 0 0 0 0 1022.5 1022.4 7.2
16/12:41am 15.3 16.5 14.8 97 0.3 ESE 2 6 1 3 1022.6 1022.5 7.2
16/12:30am 15.7 17.0 15.2 97 0.3 ESE 2 6 1 3 1022.8 1022.7 7.2
16/12:26am 15.7 17.0 15.2 97 0.3 ESE 2 6 1 3 1022.8 1022.7 7.2
16/12:14am 15.4 17.0 14.9 97 0.3 CALM 0 7 0 4 1023.0 1022.9 7.2
16/12:00am 15.4 17.0 14.9 97 0.3 CALM 0 0 0 0 1023.2 1023.1 7.2
 
Date/Time
EST
Tmp

°C
App
Tmp
°C
Dew
Point
°C
Rel
Hum
%
Delta-T

°C
Wind Press
QNH
hPa
Press
MSL
hPa
Rain
since
9 am
mm
Dir
 
Spd
km/h
Gust
km/h
Spd
kts
Gust
kts
15/11:30pm 15.5 15.9 14.7 95 0.5 S 6 7 3 4 1023.4 1023.3 7.2
15/11:00pm 15.7 16.4 14.6 93 0.6 WSW 4 6 2 3 1023.7 1023.6 7.2
15/10:30pm 16.0 17.5 14.7 92 0.7 CALM 0 0 0 0 1023.9 1023.8 7.2
15/10:00pm 16.6 17.3 15.6 94 0.6 NNW 6 7 3 4 1024.3 1024.2 7.2
15/09:30pm 16.6 17.0 15.3 92 0.8 NNW 7 7 4 4 1024.1 1024.0 7.2
15/09:00pm 17.4 19.1 15.2 87 1.3 CALM 0 0 0 0 1024.0 1023.9 7.2
15/08:30pm 17.9 18.6 16.2 90 1.0 NW 7 13 4 7 1024.5 1024.4 7.2
15/08:00pm 18.5 17.0 16.7 89 1.1 NW 20 30 11 16 1023.5 1023.4 7.2
15/07:43pm 18.7 17.2 16.8 89 1.1 NNE 20 35 11 19 1022.1 1022.0 7.2
15/07:30pm 18.6 19.2 16.9 90 1.0 NNE 9 11 5 6 1023.4 1023.3 6.8
15/07:10pm 18.9 17.1 17.0 89 1.2 N 22 30 12 16 1024.2 1024.1 6.4
15/07:00pm 19.5 19.1 16.3 82 1.9 WNW 13 17 7 9 1024.8 1024.7 5.6

Latest Capital City Observations: Canberra | Sydney | Melbourne | Brisbane | Adelaide | Perth | Hobart | Darwin

Other Formats:

Comma delimited format used in spreadsheet applications
http://www.bom.gov.au/fwo/IDN60901/IDN60901.94755.axf

JavaScript Object Notation format (JSON) in row-major order
http://www.bom.gov.au/fwo/IDN60901/IDN60901.94755.json